createdAt,value
2019-01-30T08:21:28.028Z,9.97
2019-01-30T08:22:42.110Z,9.97
2019-01-30T08:23:42.752Z,10.07
2019-01-30T08:24:42.395Z,10.17
2019-01-30T08:26:44.343Z,9.78
2019-01-30T08:27:44.200Z,10.08
2019-01-30T08:28:44.558Z,10.57
2019-01-30T08:29:43.965Z,9.79
2019-01-30T08:30:44.069Z,9.69
2019-01-30T08:31:43.524Z,9.98
2019-01-30T08:32:44.252Z,11.83
2019-01-30T08:33:44.365Z,10.18
2019-01-30T08:34:44.418Z,9.50
2019-01-30T08:35:43.812Z,9.50
2019-01-30T08:36:43.877Z,9.50
2019-01-30T08:37:46.057Z,9.59
2019-01-30T08:38:43.772Z,9.50
2019-01-30T08:39:43.053Z,9.59
2019-01-30T08:40:43.693Z,10.08
2019-01-30T08:41:43.774Z,9.98
2019-01-30T08:42:43.651Z,9.88
2019-01-30T08:43:43.552Z,10.08
2019-01-30T08:44:47.120Z,9.98
2019-01-30T08:45:46.098Z,10.95
2019-01-30T08:46:43.992Z,9.98
2019-01-30T08:47:43.927Z,10.17
2019-01-30T08:48:43.953Z,10.66
2019-01-30T08:49:43.744Z,10.85
2019-01-30T08:50:44.376Z,10.94
2019-01-30T08:51:45.650Z,11.04
2019-01-30T08:52:44.371Z,10.36
2019-01-30T08:53:42.791Z,10.46
2019-01-30T08:54:43.370Z,10.94
2019-01-30T08:55:44.156Z,10.46
2019-01-30T08:56:52.303Z,10.85
2019-01-30T08:57:44.383Z,10.46
2019-01-30T08:58:48.827Z,10.75
2019-01-30T08:59:43.279Z,11.15
2019-01-30T09:00:43.827Z,10.95
2019-01-30T09:01:43.292Z,11.05
2019-01-30T09:02:43.190Z,10.27
2019-01-30T09:03:43.118Z,9.98
2019-01-30T09:04:43.183Z,9.98
2019-01-30T09:05:44.399Z,10.27
2019-01-30T09:06:43.150Z,10.75
2019-01-30T09:07:44.500Z,10.27
2019-01-30T09:08:43.204Z,10.27
2019-01-30T09:09:42.413Z,10.08
2019-01-30T09:10:43.097Z,10.27
2019-01-30T09:11:42.980Z,10.37
2019-01-30T09:12:42.945Z,10.57
2019-01-30T09:13:42.883Z,10.47
2019-01-30T09:14:42.876Z,10.47
2019-01-30T09:15:42.942Z,10.56
2019-01-30T09:16:42.899Z,10.47
2019-01-30T09:17:42.798Z,10.56
2019-01-30T09:18:42.773Z,10.57
2019-01-30T09:19:42.783Z,10.66
2019-01-30T09:20:42.705Z,10.56
2019-01-30T09:21:42.791Z,10.66
2019-01-30T09:22:42.756Z,10.08
2019-01-30T09:23:45.468Z,10.27
2019-01-30T09:24:42.030Z,10.66
2019-01-30T09:25:47.891Z,10.17
2019-01-30T09:26:43.976Z,10.27
2019-01-30T09:27:43.963Z,10.36
2019-01-30T09:28:42.641Z,10.27
2019-01-30T09:29:42.842Z,10.27
2019-01-30T09:30:42.599Z,10.27
2019-01-30T09:31:42.539Z,10.17
2019-01-30T09:32:43.661Z,10.27
2019-01-30T09:33:43.725Z,10.27
2019-01-30T09:34:43.262Z,10.27
2019-01-30T09:35:43.858Z,10.36
2019-01-30T09:36:43.284Z,10.27
2019-01-30T09:37:43.275Z,9.88
2019-01-30T09:38:42.930Z,10.17
2019-01-30T09:39:43.184Z,9.98
2019-01-30T09:40:43.108Z,9.98
2019-01-30T09:41:43.282Z,9.98
2019-01-30T09:42:45.552Z,10.08
2019-01-30T09:43:43.244Z,10.08
2019-01-30T09:44:43.235Z,10.08
2019-01-30T09:45:41.968Z,9.98
2019-01-30T09:46:42.764Z,10.08
2019-01-30T09:47:42.835Z,9.98
2019-01-30T09:48:42.519Z,10.08
2019-01-30T09:49:42.106Z,9.98
2019-01-30T09:50:43.247Z,10.08
2019-01-30T09:51:42.831Z,9.88
2019-01-30T09:52:42.851Z,9.98
2019-01-30T09:53:46.757Z,9.88
2019-01-30T09:54:43.927Z,10.27
2019-01-30T09:55:42.071Z,9.88
2019-01-30T09:56:42.992Z,9.78
2019-01-30T09:57:42.128Z,9.78
2019-01-30T09:58:43.050Z,9.78
2019-01-30T09:59:42.756Z,9.88
2019-01-30T10:00:42.341Z,10.66
2019-01-30T10:01:41.787Z,10.94
2019-01-30T10:02:42.825Z,10.94
2019-01-30T10:03:42.067Z,10.27
2019-01-30T10:04:42.212Z,11.44
2019-01-30T10:05:42.110Z,12.21
2019-01-30T10:06:41.963Z,10.95
2019-01-30T10:07:41.556Z,10.95
2019-01-30T10:08:41.806Z,11.24
2019-01-30T10:10:00.008Z,10.47
2019-01-30T10:11:00.728Z,9.89
2019-01-30T10:13:48.643Z,10.66
2019-01-30T10:14:49.270Z,10.85
2019-01-30T10:16:14.020Z,10.75
2019-01-30T10:17:14.230Z,11.72
2019-01-30T10:19:27.912Z,14.14
2019-01-30T10:21:51.970Z,13.66
2019-01-30T10:22:52.707Z,14.34
2019-01-30T10:24:02.063Z,14.73
2019-01-30T10:25:01.647Z,14.43
2019-01-30T10:26:49.869Z,14.82
2019-01-30T10:27:49.947Z,14.23
2019-01-30T10:30:21.688Z,15.41
2019-01-30T10:31:22.585Z,14.73
2019-01-30T10:32:22.570Z,15.69
2019-01-30T10:33:23.699Z,15.59
2019-01-30T10:34:23.036Z,15.41
2019-01-30T10:36:11.191Z,14.73
2019-01-30T10:37:11.377Z,14.23
2019-01-30T10:38:12.855Z,16.47
2019-01-30T10:40:41.003Z,15.11
2019-01-30T10:41:42.593Z,15.59
2019-01-30T10:42:41.811Z,15.69
2019-01-30T10:44:44.764Z,15.31
2019-01-30T10:45:46.060Z,15.59
2019-01-30T10:46:47.325Z,15.89
2019-01-30T10:47:47.831Z,15.79
2019-01-30T10:48:48.534Z,15.11
2019-01-30T10:49:49.753Z,15.49
2019-01-30T10:50:50.710Z,15.11
2019-01-30T10:57:00.108Z,13.46
2019-01-30T10:58:00.681Z,13.56
2019-01-30T10:58:59.924Z,13.08
2019-01-30T11:00:00.547Z,12.79
2019-01-30T11:01:00.061Z,12.88
2019-01-30T11:03:20.105Z,14.63
2019-01-30T11:04:22.238Z,14.92
2019-01-30T11:06:48.577Z,14.53
2019-01-30T11:07:48.632Z,14.73
2019-01-30T11:08:48.658Z,14.63
2019-01-30T11:09:47.813Z,15.50
2019-01-30T11:10:50.815Z,14.53
2019-01-30T11:11:48.392Z,15.11
2019-01-30T11:12:48.377Z,14.81
2019-01-30T11:13:50.354Z,14.81
2019-01-30T11:14:48.630Z,15.01
2019-01-30T11:15:48.478Z,14.62
2019-01-30T11:16:49.427Z,13.85
2019-01-30T11:17:48.329Z,13.37
2019-01-30T11:18:48.278Z,13.66
2019-01-30T11:19:48.249Z,13.66
2019-01-30T11:20:48.332Z,13.18
2019-01-30T11:21:49.998Z,13.37
2019-01-30T11:22:48.360Z,13.18
2019-01-30T11:23:50.224Z,13.18
2019-01-30T11:24:50.595Z,12.88
2019-01-30T11:25:49.070Z,12.89
2019-01-30T11:26:49.121Z,12.59
2019-01-30T11:27:48.085Z,12.89
2019-01-30T11:28:48.265Z,12.79
2019-01-30T11:29:48.003Z,12.40
2019-01-30T11:30:48.043Z,12.40
2019-01-30T11:31:48.002Z,12.88
2019-01-30T11:32:48.077Z,12.88
2019-01-30T11:33:47.904Z,13.18
2019-01-30T11:34:47.905Z,12.60
2019-01-30T11:35:47.841Z,12.50
2019-01-30T11:36:47.882Z,12.50
2019-01-30T11:37:49.428Z,12.40
2019-01-30T11:38:47.823Z,12.40
2019-01-30T11:39:47.136Z,12.49
2019-01-30T11:40:47.734Z,12.59
2019-01-30T11:41:57.315Z,12.59
2019-01-30T11:42:47.654Z,12.59
2019-01-30T11:43:50.462Z,12.59
2019-01-30T11:44:47.674Z,12.40
2019-01-30T11:45:47.688Z,12.49
2019-01-30T11:46:47.603Z,12.59
2019-01-30T11:47:47.582Z,12.30
2019-01-30T11:48:56.220Z,12.40
2019-01-30T11:49:47.611Z,12.59
2019-01-30T11:50:49.384Z,12.69
2019-01-30T11:51:47.696Z,12.30
2019-01-30T11:52:47.564Z,12.59
2019-01-30T11:53:50.390Z,12.40
2019-01-30T11:54:46.851Z,12.30
2019-01-30T11:56:10.385Z,12.30
2019-01-30T11:56:47.338Z,12.20
2019-01-30T11:58:00.679Z,12.20
2019-01-30T11:58:47.423Z,12.20
2019-01-30T11:59:47.486Z,12.30
2019-01-30T12:00:47.298Z,12.40
2019-01-30T12:01:47.294Z,12.40
2019-01-30T12:02:48.338Z,12.40
2019-01-30T12:03:49.413Z,12.40
2019-01-30T12:04:47.215Z,12.40
2019-01-30T12:05:47.193Z,12.40
2019-01-30T12:06:47.181Z,12.40
2019-01-30T12:07:47.153Z,12.30
2019-01-30T12:08:47.363Z,12.30
2019-01-30T12:09:47.274Z,12.40
2019-01-30T12:10:47.633Z,12.10
2019-01-30T12:11:47.050Z,12.49
2019-01-30T12:12:47.064Z,12.10
2019-01-30T12:13:46.936Z,12.30
2019-01-30T12:14:46.957Z,12.20
2019-01-30T12:15:46.985Z,12.20
2019-01-30T12:16:46.961Z,12.20
2019-01-30T12:17:46.238Z,12.01
2019-01-30T12:18:46.872Z,12.20
2019-01-30T12:19:47.461Z,12.01
2019-01-30T12:20:46.913Z,11.91
2019-01-30T12:21:46.136Z,12.10
2019-01-30T12:22:47.017Z,12.01
2019-01-30T12:23:46.234Z,11.91
2019-01-30T12:24:46.083Z,12.10
2019-01-30T12:25:47.295Z,12.20
2019-01-30T12:26:47.288Z,12.10
2019-01-30T12:27:50.946Z,12.10
2019-01-30T12:28:47.742Z,12.10
2019-01-30T12:29:46.848Z,11.91
2019-01-30T12:30:46.552Z,11.91
2019-01-30T12:31:46.628Z,12.10
2019-01-30T12:32:46.551Z,12.10
2019-01-30T12:33:49.523Z,12.10
2019-01-30T12:34:46.693Z,12.10
2019-01-30T12:35:46.409Z,12.10
2019-01-30T12:36:47.825Z,12.10
2019-01-30T12:37:46.379Z,12.01
2019-01-30T12:38:46.387Z,12.00
2019-01-30T12:39:46.381Z,12.01
2019-01-30T12:40:47.822Z,12.00
2019-01-30T12:41:46.323Z,11.81
2019-01-30T12:42:46.429Z,12.10
2019-01-30T12:43:46.314Z,11.91
2019-01-30T12:44:46.224Z,11.91
2019-01-30T12:45:46.235Z,12.01
2019-01-30T12:46:46.384Z,11.91
2019-01-30T12:47:46.155Z,12.01
2019-01-30T12:48:48.816Z,12.20
2019-01-30T12:49:46.141Z,12.01
2019-01-30T12:50:46.276Z,12.10
2019-01-30T12:51:46.066Z,11.90
2019-01-30T12:52:46.102Z,11.90
2019-01-30T12:53:46.128Z,11.91
2019-01-30T12:54:45.413Z,12.01
2019-01-30T12:55:46.092Z,11.91
2019-01-30T12:56:46.562Z,12.01
2019-01-30T12:57:46.604Z,12.10
2019-01-30T12:58:46.093Z,12.10
2019-01-30T12:59:46.091Z,11.81
2019-01-30T13:00:45.898Z,12.10
2019-01-30T13:01:45.912Z,12.10
2019-01-30T13:03:02.105Z,12.20
